Northampton, United Kingdom
Current Conditions -  °F | °C
As of 12:20 PM on Friday 21 Nov 2014 (Local Time) from EGTC Reporting Station
Haze Haze  
Wind Chill: 64°   Ceiling: 1200
Heat Index: 64°   Visibility: 2.5mi
Dew Point: 63°   Wind: 13mph
Humidity: 94%   Direction: 120°ESE
Pressure: 30.03"   Gusts: NA
Location:  52.24°N, 0.9°W
Report Text: EGTC 211220Z 12011KT 4000 HZ BKN012 18/17 Q1017
Loading
Personal Weather Stations






























Interactive Weather Map New forecast layout! Learn more

10-Day Weather Forecast

Advertisements
Track Severe Weather on mobile